Time;durP1;ratioP1;P1;durP2;ratioP2;P2;SDS_P1;SDS_P2;PMS_P1;PMS_P2;Temp;Humidity;BMP_temperature;BMP_pressure;BME280_temperature;BME280_humidity;BME280_pressure;Samples;Min_cycle;Max_cycle;Signal;HPM_P1;HPM_P2
2023/08/26 00:00:33;;;;;;;10.20;6.77;;;;;;;18.36;100.00;100010.06;4992671;28;20443;-86
2023/08/26 00:03:08;;;;;;;11.95;7.07;;;;;;;18.29;100.00;100014.56;4992295;28;21137;-86
2023/08/26 00:05:36;;;;;;;11.88;7.00;;;;;;;18.24;100.00;100007.34;4999190;28;20447;-84
2023/08/26 00:08:09;;;;;;;13.13;7.45;;;;;;;18.36;100.00;100003.75;5003238;28;20440;-83
2023/08/26 00:10:38;;;;;;;13.63;7.22;;;;;;;18.26;100.00;100007.81;5000456;28;20902;-86
2023/08/26 00:13:06;;;;;;;11.00;7.00;;;;;;;18.18;100.00;100003.25;4992624;28;20443;-86
2023/08/26 00:15:40;;;;;;;11.98;7.05;;;;;;;18.10;100.00;100002.22;4991581;28;20429;-83
2023/08/26 00:18:14;;;;;;;12.60;6.97;;;;;;;18.09;100.00;99999.81;4993838;28;20453;-86
2023/08/26 00:20:47;;;;;;;11.18;6.72;;;;;;;18.01;100.00;99999.59;4994604;28;20429;-85
2023/08/26 00:23:16;;;;;;;10.40;6.60;;;;;;;17.97;100.00;100003.41;4996425;28;20752;-84
2023/08/26 00:25:49;;;;;;;11.20;6.60;;;;;;;17.89;100.00;100005.09;4993904;28;20437;-86
2023/08/26 00:28:23;;;;;;;14.73;7.13;;;;;;;17.93;100.00;99991.47;4990789;28;20434;-85
2023/08/26 00:30:58;;;;;;;13.23;6.90;;;;;;;17.96;100.00;99990.78;4997921;28;20433;-86
2023/08/26 00:33:28;;;;;;;14.05;6.85;;;;;;;17.87;100.00;99987.31;5025015;28;20444;-85
2023/08/26 00:36:01;;;;;;;12.07;6.78;;;;;;;17.81;100.00;99986.75;5012218;28;22203;-86
2023/08/26 00:38:35;;;;;;;11.70;7.38;;;;;;;17.70;100.00;99986.41;4994567;28;20432;-85
2023/08/26 00:41:08;;;;;;;11.77;7.07;;;;;;;17.68;100.00;99985.97;4998458;28;20428;-86
2023/08/26 00:43:37;;;;;;;11.80;6.93;;;;;;;17.66;100.00;99988.25;4997373;28;20434;-86
2023/08/26 00:46:10;;;;;;;14.13;7.18;;;;;;;17.56;100.00;99991.47;5027343;28;20428;-86
2023/08/26 00:48:45;;;;;;;11.35;7.20;;;;;;;17.47;100.00;99995.13;5032890;28;20440;-86
2023/08/26 00:51:19;;;;;;;13.50;7.73;;;;;;;17.57;100.00;99988.38;4992935;28;20431;-85
2023/08/26 00:53:53;;;;;;;11.65;7.25;;;;;;;17.46;100.00;99988.03;4992265;28;20422;-85
2023/08/26 00:56:27;;;;;;;12.83;7.20;;;;;;;17.37;100.00;99990.06;5011557;28;20437;-85
2023/08/26 00:59:02;;;;;;;10.82;6.85;;;;;;;17.29;100.00;99988.22;4998207;28;20447;-85
2023/08/26 01:01:32;;;;;;;11.83;6.80;;;;;;;17.28;100.00;99989.41;4996458;28;20455;-84
2023/08/26 01:04:07;;;;;;;12.30;6.90;;;;;;;17.24;100.00;99988.47;5008150;28;20908;-84
2023/08/26 01:06:41;;;;;;;10.77;7.03;;;;;;;17.32;100.00;99990.31;5000261;28;20769;-85
2023/08/26 01:09:09;;;;;;;11.98;7.25;;;;;;;17.24;100.00;99988.47;5025433;28;20442;-86
2023/08/26 01:11:51;;;;;;;12.57;7.43;;;;;;;17.21;100.00;99987.22;4997667;28;20429;-86
2023/08/26 01:14:31;;;;;;;11.32;7.05;;;;;;;17.22;100.00;99986.06;5022513;28;20430;-85
2023/08/26 01:17:06;;;;;;;14.30;7.70;;;;;;;17.13;100.00;99982.63;5028634;28;20441;-85
2023/08/26 01:19:42;;;;;;;11.17;7.57;;;;;;;17.17;100.00;99987.06;5002604;28;20423;-86
2023/08/26 01:22:11;;;;;;;14.07;7.72;;;;;;;17.14;100.00;99979.53;5001762;28;20448;-85
2023/08/26 01:24:41;;;;;;;14.48;8.23;;;;;;;17.11;100.00;99987.63;5006290;28;20852;-86
2023/08/26 01:27:09;;;;;;;14.75;8.07;;;;;;;17.11;100.00;99988.47;4999664;28;20478;-83
2023/08/26 01:29:43;;;;;;;12.82;8.23;;;;;;;17.10;100.00;99983.31;4999420;28;20455;-85
2023/08/26 01:32:20;;;;;;;12.45;8.30;;;;;;;17.18;100.00;99982.41;5000864;28;20429;-85
2023/08/26 01:34:53;;;;;;;13.70;8.32;;;;;;;17.17;100.00;99980.78;5023521;28;20428;-84
2023/08/26 01:37:24;;;;;;;13.98;8.43;;;;;;;17.16;100.00;99984.66;4992030;28;20441;-85
2023/08/26 01:39:59;;;;;;;13.90;8.27;;;;;;;17.10;100.00;99992.34;5013512;28;20425;-85
2023/08/26 01:42:31;;;;;;;14.10;8.65;;;;;;;17.02;100.00;99990.50;5027427;28;20430;-83
2023/08/26 01:44:59;;;;;;;12.52;8.40;;;;;;;17.05;100.00;99983.50;4995187;28;21214;-86
2023/08/26 01:47:33;;;;;;;13.18;8.48;;;;;;;17.03;100.00;99989.34;4991506;28;20450;-85
2023/08/26 01:50:06;;;;;;;14.10;8.45;;;;;;;17.00;100.00;99990.84;4998244;28;20437;-85
2023/08/26 01:52:40;;;;;;;15.35;8.82;;;;;;;17.00;100.00;99996.34;4999669;28;20431;-85
2023/08/26 01:55:10;;;;;;;14.50;9.40;;;;;;;17.00;100.00;99992.78;5025220;28;20438;-85
2023/08/26 01:57:43;;;;;;;14.27;9.33;;;;;;;16.98;100.00;99990.34;4993993;28;20425;-85
2023/08/26 02:00:13;;;;;;;14.23;9.63;;;;;;;17.01;100.00;99986.13;5024441;28;20432;-85
2023/08/26 02:02:44;;;;;;;15.68;9.63;;;;;;;17.03;100.00;99988.53;4993240;28;20438;-85
2023/08/26 02:05:12;;;;;;;16.30;10.77;;;;;;;17.05;100.00;99986.25;4993493;28;20931;-85
2023/08/26 02:07:46;;;;;;;17.35;11.05;;;;;;;17.06;100.00;99982.38;4996755;28;20776;-86
2023/08/26 02:10:21;;;;;;;16.98;11.25;;;;;;;17.04;100.00;99990.16;4991076;28;20973;-85
2023/08/26 02:12:49;;;;;;;17.38;11.50;;;;;;;17.00;100.00;99990.84;4994877;28;20444;-86
2023/08/26 02:15:17;;;;;;;19.60;11.70;;;;;;;17.02;100.00;99984.19;4996750;28;20783;-84
2023/08/26 02:17:50;;;;;;;16.52;11.27;;;;;;;16.98;100.00;99982.13;5006391;28;20419;-85
2023/08/26 02:20:19;;;;;;;18.35;12.13;;;;;;;16.96;100.00;99976.16;4995504;28;20562;-86
2023/08/26 02:22:52;;;;;;;20.05;12.80;;;;;;;17.02;100.00;99962.22;4996800;28;21482;-85
2023/08/26 02:25:27;;;;;;;21.08;13.25;;;;;;;17.13;100.00;99960.63;5002529;28;20434;-86
2023/08/26 02:27:55;;;;;;;20.67;12.67;;;;;;;17.08;100.00;99958.09;5000233;28;20440;-86
2023/08/26 02:30:23;;;;;;;21.10;13.43;;;;;;;17.19;100.00;99961.19;4992166;28;20437;-85
2023/08/26 02:32:51;;;;;;;22.05;13.95;;;;;;;17.11;100.00;99963.72;4995901;28;20431;-85
2023/08/26 02:35:26;;;;;;;24.30;14.98;;;;;;;17.07;100.00;99961.97;4996832;28;20444;-85
2023/08/26 02:37:59;;;;;;;24.13;14.90;;;;;;;17.05;100.00;99959.56;5008362;28;20455;-84
2023/08/26 02:40:29;;;;;;;23.08;14.07;;;;;;;17.00;100.00;99957.84;4999627;28;20473;-85
2023/08/26 02:42:57;;;;;;;23.88;14.18;;;;;;;16.94;100.00;99961.94;4996407;28;20945;-85
2023/08/26 02:45:31;;;;;;;25.98;14.35;;;;;;;16.88;100.00;99957.00;4995602;28;20430;-86
2023/08/26 02:48:05;;;;;;;23.23;14.15;;;;;;;16.83;100.00;99963.50;4991615;28;20440;-86
2023/08/26 02:50:39;;;;;;;24.33;14.68;;;;;;;16.81;100.00;99960.31;4994106;28;20945;-85
2023/08/26 02:53:07;;;;;;;24.35;14.43;;;;;;;16.81;100.00;99957.56;4996681;28;20510;-85
2023/08/26 02:55:38;;;;;;;23.63;14.80;;;;;;;16.89;100.00;99953.94;4994957;28;20426;-84
2023/08/26 02:58:06;;;;;;;25.33;14.40;;;;;;;16.79;100.00;99963.41;5000259;28;20797;-84
2023/08/26 03:00:39;;;;;;;20.33;13.48;;;;;;;16.80;100.00;99959.47;4997049;28;20432;-84
2023/08/26 03:03:08;;;;;;;25.20;14.57;;;;;;;16.75;100.00;99962.47;4989955;28;20442;-85
2023/08/26 03:05:42;;;;;;;21.08;14.23;;;;;;;16.70;100.00;99965.41;5007667;28;20455;-84
2023/08/26 03:08:10;;;;;;;24.92;15.45;;;;;;;16.69;100.00;99960.25;4990521;28;20423;-84
2023/08/26 03:10:56;;;;;;;24.23;14.98;;;;;;;16.66;100.00;99967.25;4993053;28;20425;-85
2023/08/26 03:13:24;;;;;;;22.45;14.70;;;;;;;16.67;100.00;99966.09;4999696;28;20432;-84
2023/08/26 03:15:58;;;;;;;22.80;13.73;;;;;;;16.62;100.00;99961.59;4994297;28;20443;-85
2023/08/26 03:18:29;;;;;;;22.20;14.10;;;;;;;16.57;100.00;99964.59;5023615;28;20426;-84
2023/08/26 03:21:03;;;;;;;23.08;14.13;;;;;;;16.57;100.00;99961.84;5032262;28;20646;-86
2023/08/26 03:23:36;;;;;;;22.90;14.68;;;;;;;16.53;100.00;99960.91;5001660;28;21199;-85
2023/08/26 03:26:11;;;;;;;24.20;15.38;;;;;;;16.60;100.00;99961.16;5002061;28;20797;-85
2023/08/26 03:28:45;;;;;;;27.80;16.65;;;;;;;16.63;100.00;99965.19;5000653;28;20421;-85
2023/08/26 03:31:14;;;;;;;26.75;16.55;;;;;;;16.65;100.00;99957.38;5000906;28;20491;-85
2023/08/26 03:33:49;;;;;;;28.10;17.10;;;;;;;16.63;100.00;99952.22;5001262;28;21013;-85
2023/08/26 03:36:18;;;;;;;32.97;17.58;;;;;;;16.74;100.00;99963.59;4997064;28;20442;-86
2023/08/26 03:38:51;;;;;;;27.52;17.27;;;;;;;16.71;100.00;99972.53;4996738;28;20437;-85
2023/08/26 03:41:26;;;;;;;26.65;17.02;;;;;;;16.77;100.00;99964.88;5001901;28;20443;-85
2023/08/26 03:43:59;;;;;;;32.03;18.02;;;;;;;16.77;100.00;99971.16;4993325;28;20454;-86
2023/08/26 03:46:27;;;;;;;26.63;16.40;;;;;;;16.69;100.00;99976.75;5013488;28;20440;-85
2023/08/26 03:49:01;;;;;;;27.98;16.65;;;;;;;16.76;100.00;99980.53;5000728;28;20432;-86
2023/08/26 03:51:34;;;;;;;27.40;16.98;;;;;;;16.70;100.00;99975.63;4994614;28;20438;-85
2023/08/26 03:54:07;;;;;;;29.95;16.92;;;;;;;16.64;100.00;99975.00;4991962;28;20438;-83
2023/08/26 03:56:42;;;;;;;32.67;17.20;;;;;;;16.77;100.00;99973.13;4999656;28;20426;-84
2023/08/26 03:59:12;;;;;;;28.42;16.73;;;;;;;16.62;100.00;99969.84;5008939;28;20473;-84
2023/08/26 04:01:45;;;;;;;30.23;17.40;;;;;;;16.56;100.00;99973.97;4997384;28;20442;-85
2023/08/26 04:04:18;;;;;;;28.35;16.70;;;;;;;16.59;100.00;99972.47;4994466;28;20429;-85
2023/08/26 04:06:46;;;;;;;28.10;16.92;;;;;;;16.52;100.00;99974.94;5025205;28;20434;-84
2023/08/26 04:09:15;;;;;;;30.90;17.88;;;;;;;16.57;100.00;99975.56;4994151;28;20801;-82
2023/08/26 04:11:49;;;;;;;29.92;18.40;;;;;;;16.60;100.00;99969.41;5026556;28;20996;-85
2023/08/26 04:14:22;;;;;;;30.63;18.20;;;;;;;16.57;100.00;99972.81;4997506;28;20435;-84
2023/08/26 04:16:51;;;;;;;32.65;18.48;;;;;;;16.54;100.00;99967.97;5000028;28;20774;-83
2023/08/26 04:19:20;;;;;;;34.80;19.17;;;;;;;16.52;100.00;99974.94;5025688;28;20442;-84
2023/08/26 04:21:49;;;;;;;36.03;19.90;;;;;;;16.65;100.00;99974.69;4995028;28;20931;-85
2023/08/26 04:24:22;;;;;;;34.13;19.88;;;;;;;16.61;100.00;99971.00;4996668;28;20445;-85
2023/08/26 04:26:52;;;;;;;37.53;21.02;;;;;;;16.65;100.00;99974.69;4997256;28;20424;-85
2023/08/26 04:29:50;;;;;;;42.47;21.75;;;;;;;16.74;100.00;99979.28;5008154;28;20892;-85
2023/08/26 04:32:23;;;;;;;45.97;23.50;;;;;;;16.84;100.00;99981.59;5002494;28;20422;-84
2023/08/26 04:34:57;;;;;;;48.40;24.33;;;;;;;16.90;100.00;99987.72;4995565;28;20448;-84
2023/08/26 04:37:30;;;;;;;49.13;24.23;;;;;;;16.89;100.00;99994.34;5010067;28;20450;-84
2023/08/26 04:39:58;;;;;;;46.15;24.17;;;;;;;16.87;100.00;99986.41;4996462;28;20877;-86
2023/08/26 04:42:35;;;;;;;48.92;24.45;;;;;;;16.92;100.00;99993.69;4994757;28;20905;-85
2023/08/26 04:45:12;;;;;;;46.22;23.52;;;;;;;16.92;100.00;99983.47;4993693;28;20430;-85
2023/08/26 04:47:46;;;;;;;47.40;23.98;;;;;;;16.92;100.00;99982.69;4996063;28;20425;-86
2023/08/26 04:50:19;;;;;;;46.43;24.10;;;;;;;16.93;100.00;99985.09;4999194;28;20430;-85
2023/08/26 04:52:47;;;;;;;46.30;23.60;;;;;;;16.98;100.00;99984.84;5002386;28;20441;-85
2023/08/26 04:55:16;;;;;;;42.15;22.92;;;;;;;16.97;100.00;99972.28;5002967;28;20433;-83
2023/08/26 04:57:45;;;;;;;47.72;24.45;;;;;;;17.00;100.00;99974.34;4996082;28;20425;-84
2023/08/26 05:00:16;;;;;;;47.20;24.80;;;;;;;17.05;100.00;99980.75;5008648;28;20430;-86
2023/08/26 05:02:50;;;;;;;46.63;24.42;;;;;;;17.07;100.00;99982.03;4996802;28;20440;-84
2023/08/26 05:05:19;;;;;;;48.30;24.92;;;;;;;17.09;100.00;99981.69;4997062;28;20437;-85
2023/08/26 05:07:47;;;;;;;42.00;22.80;;;;;;;17.19;100.00;99980.44;4994979;28;20434;-85
2023/08/26 05:10:20;;;;;;;47.70;24.17;;;;;;;17.19;100.00;99978.47;5010788;28;20441;-84
2023/08/26 05:12:55;;;;;;;46.38;24.88;;;;;;;17.28;100.00;99986.66;4999032;28;20445;-85
2023/08/26 05:15:28;;;;;;;47.10;24.63;;;;;;;17.28;100.00;99981.94;5000227;28;20428;-85
2023/08/26 05:17:57;;;;;;;45.25;24.63;;;;;;;17.44;100.00;99984.00;4997107;28;20457;-85
2023/08/26 05:20:30;;;;;;;43.65;23.30;;;;;;;17.34;100.00;99996.25;5005834;28;20440;-85
2023/08/26 05:23:04;;;;;;;46.10;24.40;;;;;;;17.32;100.00;99991.09;5018050;28;20438;-85
2023/08/26 05:25:37;;;;;;;47.58;23.80;;;;;;;17.37;100.00;99997.53;5001635;28;20425;-85
2023/08/26 05:28:07;;;;;;;41.45;22.70;;;;;;;17.38;100.00;99999.94;5001494;28;20443;-85
2023/08/26 05:30:40;;;;;;;41.57;23.43;;;;;;;17.45;100.00;100007.63;4999848;28;20436;-85
2023/08/26 05:33:14;;;;;;;42.70;23.17;;;;;;;17.43;100.00;100009.94;5000005;28;20435;-85
2023/08/26 05:35:48;;;;;;;41.63;22.90;;;;;;;17.38;100.00;100007.41;5026524;28;20430;-86
2023/08/26 05:38:21;;;;;;;40.33;22.45;;;;;;;17.37;100.00;100008.53;4991582;28;20434;-87
2023/08/26 05:40:54;;;;;;;40.42;21.65;;;;;;;17.49;100.00;100003.03;5024405;28;20442;-83
2023/08/26 05:43:30;;;;;;;42.25;22.30;;;;;;;17.42;100.00;100005.56;4997810;28;20914;-83
2023/08/26 05:45:58;;;;;;;39.50;21.77;;;;;;;17.46;100.00;100012.78;4995620;28;20426;-84
2023/08/26 05:48:31;;;;;;;39.88;21.88;;;;;;;17.63;100.00;100008.19;4990326;28;20460;-84
2023/08/26 05:51:00;;;;;;;39.10;21.48;;;;;;;17.58;100.00;100011.16;4998458;28;20945;-85
2023/08/26 05:53:33;;;;;;;35.08;20.00;;;;;;;17.65;100.00;100014.19;4996198;28;20438;-86
2023/08/26 05:56:01;;;;;;;36.25;20.08;;;;;;;17.59;100.00;100032.03;4991483;28;20430;-83
2023/08/26 05:58:36;;;;;;;36.67;19.55;;;;;;;17.57;100.00;100037.88;4995951;28;20443;-83
2023/08/26 06:01:05;;;;;;;37.65;20.15;;;;;;;17.56;100.00;100044.53;4991031;28;20431;-84
2023/08/26 06:03:38;;;;;;;37.25;20.83;;;;;;;17.51;100.00;100045.56;4991208;28;20839;-84
2023/08/26 06:06:13;;;;;;;36.60;19.97;;;;;;;17.55;100.00;100051.16;4990473;28;20441;-89
2023/08/26 06:08:42;;;;;;;37.63;20.25;;;;;;;17.54;100.00;100051.53;5010845;28;20434;-83
2023/08/26 06:11:10;;;;;;;36.60;20.33;;;;;;;17.59;100.00;100049.34;4994286;28;20471;-84
2023/08/26 06:13:46;;;;;;;39.70;20.05;;;;;;;17.55;100.00;100053.94;5008135;28;21470;-84
2023/08/26 06:16:18;;;;;;;37.53;20.08;;;;;;;17.65;100.00;100055.44;4996005;28;20437;-84
2023/08/26 06:18:52;;;;;;;38.03;20.53;;;;;;;17.67;100.00;100059.44;4997889;28;20445;-84
2023/08/26 06:21:25;;;;;;;35.13;20.15;;;;;;;17.62;100.00;100067.94;4993616;28;20465;-84
2023/08/26 06:23:53;;;;;;;38.65;21.27;;;;;;;17.55;100.00;100062.19;4990113;28;20432;-84
2023/08/26 06:26:26;;;;;;;39.90;20.85;;;;;;;17.59;100.00;100065.06;4995761;28;20434;-83
2023/08/26 06:29:01;;;;;;;38.17;21.27;;;;;;;17.81;100.00;100050.84;4992120;28;20434;-85
2023/08/26 06:31:34;;;;;;;41.42;21.23;;;;;;;18.00;100.00;100064.06;5000886;28;20436;-84
2023/08/26 06:34:08;;;;;;;41.40;21.55;;;;;;;18.17;100.00;100057.53;4992692;28;20441;-85
2023/08/26 06:36:36;;;;;;;40.25;20.75;;;;;;;18.18;100.00;100061.84;4995830;28;20439;-83
2023/08/26 06:39:11;;;;;;;38.15;20.92;;;;;;;18.42;100.00;100060.22;4995091;28;20429;-86
2023/08/26 06:41:39;;;;;;;35.78;20.25;;;;;;;18.46;100.00;100065.81;5023228;28;20834;-83
2023/08/26 06:44:09;;;;;;;36.35;20.23;;;;;;;18.40;100.00;100072.75;4998673;28;20442;-84
2023/08/26 06:46:43;;;;;;;35.25;20.38;;;;;;;18.40;100.00;100070.78;4992845;28;21316;-84
2023/08/26 06:49:11;;;;;;;35.58;20.48;;;;;;;18.30;100.00;100071.28;4992549;28;20436;-84
2023/08/26 06:51:44;;;;;;;39.58;20.20;;;;;;;18.22;100.00;100078.50;4993083;28;20428;-82
2023/08/26 06:54:13;;;;;;;35.10;19.43;;;;;;;18.13;100.00;100078.63;5002462;28;20401;-84
2023/08/26 06:56:46;;;;;;;35.08;19.17;;;;;;;18.15;100.00;100079.06;5003997;28;20980;-84
2023/08/26 06:59:20;;;;;;;34.47;18.65;;;;;;;18.24;100.00;100083.66;4996326;28;20806;-83
2023/08/26 07:01:49;;;;;;;35.17;19.47;;;;;;;18.46;100.00;100096.13;4993951;28;20438;-84
2023/08/26 07:04:22;;;;;;;31.30;18.17;;;;;;;18.48;100.00;100102.13;4995323;28;20781;-82
2023/08/26 07:06:55;;;;;;;33.78;17.73;;;;;;;18.43;100.00;100102.34;4994323;28;20426;-83
2023/08/26 07:09:28;;;;;;;35.25;18.08;;;;;;;18.17;100.00;100109.03;4996525;28;20432;-83
2023/08/26 07:12:01;;;;;;;33.03;18.52;;;;;;;18.19;100.00;100104.00;5001696;28;20915;-82
2023/08/26 07:14:31;;;;;;;33.50;18.40;;;;;;;18.20;100.00;100111.06;5007595;28;20424;-83
2023/08/26 07:17:04;;;;;;;33.03;17.77;;;;;;;18.18;100.00;100107.88;5001389;28;20452;-84
2023/08/26 07:19:37;;;;;;;35.65;18.45;;;;;;;18.18;100.00;100111.44;5015358;28;20445;-85
2023/08/26 07:22:05;;;;;;;32.40;18.13;;;;;;;18.19;100.00;100120.50;5002378;28;20443;-83
2023/08/26 07:24:38;;;;;;;33.35;17.08;;;;;;;18.22;100.00;100127.28;5003666;28;20409;-83
2023/08/26 07:27:06;;;;;;;28.77;16.15;;;;;;;18.29;100.00;100133.00;5015094;28;20433;-85
2023/08/26 07:29:41;;;;;;;27.35;15.98;;;;;;;18.09;100.00;100131.97;5003400;28;20460;-84
2023/08/26 07:32:14;;;;;;;26.90;16.05;;;;;;;18.08;100.00;100130.38;5002173;28;20425;-82
2023/08/26 07:34:47;;;;;;;25.65;15.25;;;;;;;18.10;100.00;100136.34;5001807;28;20445;-84
2023/08/26 07:37:15;;;;;;;26.55;14.65;;;;;;;18.06;100.00;100140.94;5000038;28;20914;-84
2023/08/26 07:39:50;;;;;;;23.77;14.25;;;;;;;17.97;100.00;100135.53;4999484;28;21068;-83
2023/08/26 07:42:24;;;;;;;23.50;13.70;;;;;;;18.18;100.00;100140.94;5007523;28;20434;-84
2023/08/26 07:44:58;;;;;;;27.00;14.48;;;;;;;18.36;100.00;100135.97;5001464;28;20977;-84
2023/08/26 07:47:27;;;;;;;22.73;13.13;;;;;;;18.61;100.00;100136.75;5015306;28;20999;-85
2023/08/26 07:50:00;;;;;;;20.58;11.90;;;;;;;18.37;100.00;100129.34;4999092;28;20881;-83
2023/08/26 07:52:33;;;;;;;18.38;11.32;;;;;;;18.34;100.00;100132.78;5011888;28;20455;-83
2023/08/26 07:55:07;;;;;;;19.33;11.97;;;;;;;18.11;100.00;100140.69;5006432;28;20442;-83
2023/08/26 07:57:35;;;;;;;18.45;13.30;;;;;;;18.02;100.00;100149.06;5002820;28;20913;-84
2023/08/26 08:00:12;;;;;;;20.05;13.77;;;;;;;17.93;100.00;100154.69;4997459;28;20434;-82
2023/08/26 08:02:40;;;;;;;18.45;13.00;;;;;;;18.11;100.00;100149.75;4995556;28;20425;-83
2023/08/26 08:05:09;;;;;;;18.45;11.52;;;;;;;18.43;100.00;100154.69;4995801;28;20452;-82
2023/08/26 08:07:37;;;;;;;17.23;10.73;;;;;;;18.31;100.00;100156.31;4966307;28;20813;-82
2023/08/26 08:10:11;;;;;;;15.02;9.23;;;;;;;18.31;100.00;100167.31;4993387;28;20447;-83
2023/08/26 08:12:44;;;;;;;13.70;8.85;;;;;;;18.35;100.00;100164.66;4977082;28;20492;-82
2023/08/26 08:15:19;;;;;;;15.97;8.17;;;;;;;18.27;100.00;100165.59;4976967;28;20445;-84
2023/08/26 08:17:47;;;;;;;14.38;7.70;;;;;;;18.37;100.00;100173.41;4979171;28;20586;-83
2023/08/26 08:20:20;;;;;;;13.98;7.60;;;;;;;18.61;100.00;100188.31;4979730;28;20455;-83
2023/08/26 08:22:53;;;;;;;12.60;6.50;;;;;;;18.41;100.00;100176.25;4976433;28;20454;-83
2023/08/26 08:25:22;;;;;;;12.27;6.05;;;;;;;18.45;100.00;100190.94;4976414;28;20443;-83
2023/08/26 08:27:55;;;;;;;12.95;6.00;;;;;;;18.52;100.00;100177.41;4977622;28;20439;-83
2023/08/26 08:30:24;;;;;;;11.13;6.00;;;;;;;18.63;100.00;100173.03;5010450;28;20438;-84
2023/08/26 08:32:57;;;;;;;12.77;6.43;;;;;;;18.73;100.00;100169.00;4976814;28;20430;-83
2023/08/26 08:35:31;;;;;;;9.43;5.78;;;;;;;18.56;100.00;100172.81;4974075;28;20799;-84
2023/08/26 08:38:04;;;;;;;11.63;6.18;;;;;;;18.59;100.00;100168.53;4977630;28;20441;-82
2023/08/26 08:40:32;;;;;;;11.95;6.28;;;;;;;18.91;100.00;100177.03;4979005;28;21165;-82
2023/08/26 08:43:07;;;;;;;10.57;6.10;;;;;;;18.95;100.00;100180.69;4970588;28;20434;-84
2023/08/26 08:45:36;;;;;;;10.38;6.18;;;;;;;18.88;100.00;100188.75;4978221;28;20439;-83
2023/08/26 08:48:10;;;;;;;9.55;6.28;;;;;;;19.10;100.00;100184.66;4978995;28;20439;-85
2023/08/26 08:50:43;;;;;;;11.48;6.05;;;;;;;19.20;100.00;100189.69;4982309;28;20455;-83
2023/08/26 08:53:22;;;;;;;11.02;6.15;;;;;;;19.30;100.00;100186.41;4996939;28;20455;-83
2023/08/26 08:55:56;;;;;;;9.52;6.00;;;;;;;19.28;100.00;100183.22;4978817;28;20428;-82
2023/08/26 08:58:30;;;;;;;10.05;5.80;;;;;;;19.16;100.00;100192.34;4977920;28;20467;-83
2023/08/26 09:01:01;;;;;;;12.45;6.28;;;;;;;18.99;100.00;100198.16;4977049;28;20782;-83
2023/08/26 09:03:34;;;;;;;10.00;6.07;;;;;;;18.86;100.00;100200.91;4977036;28;20434;-82
2023/08/26 09:06:09;;;;;;;11.45;6.18;;;;;;;18.68;100.00;100210.56;4979476;28;20463;-84
2023/08/26 09:08:43;;;;;;;11.25;6.03;;;;;;;18.48;100.00;100215.06;4992434;28;20884;-84
2023/08/26 09:11:16;;;;;;;11.70;5.90;;;;;;;18.40;100.00;100194.75;4978359;28;20439;-85
2023/08/26 09:13:50;;;;;;;13.27;5.82;;;;;;;18.27;100.00;100212.41;4977886;28;20458;-82
2023/08/26 09:16:35;;;;;;;10.57;5.78;;;;;;;18.16;100.00;100209.31;4978169;28;20449;-83
2023/08/26 09:19:04;;;;;;;8.25;5.47;;;;;;;17.92;100.00;100221.88;4977451;28;20547;-83
2023/08/26 09:21:33;;;;;;;10.85;5.70;;;;;;;17.87;100.00;100219.34;4974943;28;20455;-84
2023/08/26 09:24:02;;;;;;;13.05;5.40;;;;;;;17.89;100.00;100219.78;4976078;28;20438;-84
2023/08/26 09:26:35;;;;;;;9.40;5.68;;;;;;;17.94;100.00;100227.03;4982320;28;20426;-84
2023/08/26 09:29:12;;;;;;;9.43;5.40;;;;;;;17.81;100.00;100218.72;4990984;28;21478;-84
2023/08/26 09:31:51;;;;;;;10.05;5.70;;;;;;;17.82;100.00;100222.31;5002226;28;20431;-84
2023/08/26 09:34:23;;;;;;;11.30;6.43;;;;;;;17.57;100.00;100233.22;4979754;28;20434;-83
2023/08/26 09:36:52;;;;;;;9.95;6.05;;;;;;;17.56;100.00;100239.88;4975475;28;20466;-83
2023/08/26 09:39:26;;;;;;;11.95;6.20;;;;;;;17.46;100.00;100240.31;4972288;28;20482;-84
2023/08/26 09:42:00;;;;;;;10.95;6.57;;;;;;;17.48;100.00;100241.56;5011173;28;20457;-83
2023/08/26 09:44:33;;;;;;;11.70;6.33;;;;;;;17.42;100.00;100244.88;4981321;28;20430;-84
2023/08/26 09:47:15;;;;;;;10.48;6.65;;;;;;;17.20;100.00;100257.81;4991917;28;20432;-83
2023/08/26 09:49:49;;;;;;;11.45;6.25;;;;;;;17.12;100.00;100261.44;4988038;28;20426;-84
2023/08/26 09:52:17;;;;;;;13.67;6.73;;;;;;;17.11;100.00;100255.13;5008563;28;20927;-83
2023/08/26 09:54:52;;;;;;;12.25;6.47;;;;;;;17.14;100.00;100250.91;4977878;28;20440;-84
2023/08/26 09:57:25;;;;;;;11.77;6.15;;;;;;;17.21;100.00;100253.94;4973684;28;20447;-83
2023/08/26 09:59:59;;;;;;;12.43;6.13;;;;;;;17.25;100.00;100246.63;4981441;28;20441;-84
2023/08/26 10:02:48;;;;;;;9.52;6.10;;;;;;;17.43;100.00;100251.97;4981647;28;20428;-83
2023/08/26 10:05:18;;;;;;;10.27;5.80;;;;;;;17.34;100.00;100255.63;4975772;28;20490;-85
2023/08/26 10:07:49;;;;;;;12.50;5.72;;;;;;;17.51;100.00;100249.16;4975929;28;20997;-86
2023/08/26 10:10:30;;;;;;;9.30;5.68;;;;;;;17.55;100.00;100254.75;4979254;28;20432;-83
2023/08/26 10:13:06;;;;;;;9.20;5.53;;;;;;;17.62;100.00;100257.78;4978998;28;20442;-84
2023/08/26 10:15:40;;;;;;;10.25;5.05;;;;;;;17.64;100.00;100260.19;4977568;28;20920;-83
2023/08/26 10:18:25;;;;;;;9.55;4.70;;;;;;;17.59;100.00;100265.91;4981056;28;20436;-85
2023/08/26 10:21:01;;;;;;;9.88;4.78;;;;;;;17.42;100.00;100272.38;4977097;28;20432;-82
2023/08/26 10:23:35;;;;;;;10.20;4.85;;;;;;;17.39;100.00;100279.34;4981613;28;20441;-82
2023/08/26 10:26:09;;;;;;;9.88;4.75;;;;;;;17.32;100.00;100277.13;4976167;28;20775;-84
2023/08/26 10:28:43;;;;;;;9.57;4.78;;;;;;;17.33;100.00;100273.25;4973877;28;20440;-82
2023/08/26 10:31:16;;;;;;;11.38;5.10;;;;;;;17.33;100.00;100273.25;4976744;28;20432;-83
2023/08/26 10:34:02;;;;;;;9.05;4.72;;;;;;;17.51;100.00;100281.34;4979171;28;20445;-83
2023/08/26 10:36:35;;;;;;;9.18;4.75;;;;;;;17.65;100.00;100279.13;4980433;28;20795;-82
2023/08/26 10:39:15;;;;;;;10.55;5.00;;;;;;;17.80;100.00;100274.94;4982158;28;20434;-86
2023/08/26 10:42:10;;;;;;;9.57;5.00;;;;;;;17.92;100.00;100278.91;4976630;28;20447;-83
2023/08/26 10:44:47;;;;;;;8.98;4.72;;;;;;;18.04;100.00;100276.19;4975706;28;20434;-83
2023/08/26 10:47:37;;;;;;;9.00;4.70;;;;;;;18.12;100.00;100285.50;4976148;28;20466;-83
2023/08/26 10:50:20;;;;;;;8.73;4.50;;;;;;;18.13;100.00;100284.34;4986945;28;20441;-83
2023/08/26 10:52:56;;;;;;;10.32;4.60;;;;;;;18.17;100.00;100294.34;5009720;28;20433;-84
2023/08/26 10:55:26;;;;;;;9.20;4.28;;;;;;;18.22;100.00;100298.03;4986377;28;20443;-84
2023/08/26 10:58:01;;;;;;;10.10;4.18;;;;;;;18.28;100.00;100302.97;4979861;28;20429;-82
2023/08/26 11:00:35;;;;;;;8.43;4.15;;;;;;;18.33;100.00;100307.47;4977064;28;20439;-83
2023/08/26 11:03:10;;;;;;;7.63;4.03;;;;;;;18.63;100.00;100305.31;4980387;28;21016;-83
2023/08/26 11:05:46;;;;;;;8.10;3.70;;;;;;;18.69;100.00;100308.66;4980122;28;20440;-84
2023/08/26 11:08:19;;;;;;;8.63;3.80;;;;;;;18.75;100.00;100306.47;4991894;28;20933;-82
2023/08/26 11:10:53;;;;;;;9.73;3.63;;;;;;;18.84;100.00;100299.69;5006677;28;20440;-83
2023/08/26 11:13:26;;;;;;;8.48;3.80;;;;;;;18.77;100.00;100299.47;4985147;28;20447;-83
2023/08/26 11:15:55;;;;;;;7.78;3.75;;;;;;;18.85;100.00;100303.22;4983568;28;20434;-83
2023/08/26 11:18:28;;;;;;;6.78;3.80;;;;;;;18.88;100.00;100307.28;4978287;28;20441;-83
2023/08/26 11:21:10;;;;;;;8.32;3.60;;;;;;;18.83;100.00;100302.78;5007234;28;23619;-83
2023/08/26 11:23:43;;;;;;;6.72;3.55;;;;;;;18.69;100.00;100303.94;4986416;28;20437;-83
2023/08/26 11:26:20;;;;;;;7.63;3.55;;;;;;;18.90;100.00;100307.75;4976333;28;20443;-83
2023/08/26 11:28:49;;;;;;;8.38;3.80;;;;;;;19.11;100.00;100305.69;4979542;28;20428;-83
2023/08/26 11:31:22;;;;;;;6.88;3.50;;;;;;;19.34;100.00;100305.97;4990999;28;20441;-83
2023/08/26 11:33:56;;;;;;;7.68;3.47;;;;;;;19.19;100.00;100303.94;4992577;28;20454;-84